Time;durP1;ratioP1;P1;durP2;ratioP2;P2;SDS_P1;SDS_P2;PMS_P1;PMS_P2;Temp;Humidity;BMP_temperature;BMP_pressure;BME280_temperature;BME280_humidity;BME280_pressure;Samples;Min_cycle;Max_cycle;Signal;HPM_P1;HPM_P2
2023/05/07 00:01:14;;;;;;;4.00;3.28;;;;;;;13.68;95.86;101509.59;5067191;28;20032;-76
2023/05/07 00:03:40;;;;;;;6.28;3.33;;;;;;;13.68;96.33;101514.00;5070823;28;20463;-75
2023/05/07 00:06:05;;;;;;;5.55;3.53;;;;;;;13.68;96.35;101514.84;5071362;28;20107;-76
2023/05/07 00:08:30;;;;;;;4.78;3.30;;;;;;;13.69;96.60;101513.94;5073358;28;20036;-76
2023/05/07 00:10:56;;;;;;;4.22;3.40;;;;;;;13.69;96.57;101510.47;5068555;28;20547;-76
2023/05/07 00:13:21;;;;;;;6.13;3.33;;;;;;;13.68;95.97;101517.44;5070177;28;20428;-76
2023/05/07 00:15:46;;;;;;;5.63;3.72;;;;;;;13.67;95.89;101513.13;5070870;28;20020;-76
2023/05/07 00:18:12;;;;;;;5.57;3.58;;;;;;;13.65;95.98;101514.94;5067702;28;20527;-76
2023/05/07 00:20:37;;;;;;;4.32;3.45;;;;;;;13.62;96.13;101509.78;5069252;28;20024;-76
2023/05/07 00:23:02;;;;;;;4.30;3.30;;;;;;;13.58;96.05;101508.16;5069035;28;20027;-76
2023/05/07 00:25:28;;;;;;;5.75;3.50;;;;;;;13.56;96.21;101507.34;5070014;28;20043;-76
2023/05/07 00:27:53;;;;;;;4.63;3.50;;;;;;;13.56;95.82;101507.34;5069938;28;20057;-76
2023/05/07 00:30:18;;;;;;;4.68;3.80;;;;;;;13.56;96.01;101497.75;5071839;28;20071;-76
2023/05/07 00:32:45;;;;;;;4.85;4.00;;;;;;;13.55;96.28;101495.16;5070989;28;20017;-76
2023/05/07 00:35:11;;;;;;;5.90;4.25;;;;;;;13.53;96.45;101499.56;5071304;28;20455;-76
2023/05/07 00:37:36;;;;;;;5.10;3.88;;;;;;;13.53;96.46;101496.97;5071001;28;20032;-76
2023/05/07 00:40:04;;;;;;;5.53;3.72;;;;;;;13.52;96.74;101493.50;5070601;28;20027;-76
2023/05/07 00:42:32;;;;;;;4.90;3.72;;;;;;;13.53;97.03;101494.34;5070287;28;20035;-76
2023/05/07 00:44:57;;;;;;;4.97;3.90;;;;;;;13.51;96.96;101487.41;5070391;28;20024;-76
2023/05/07 00:47:23;;;;;;;5.32;3.63;;;;;;;13.52;96.72;101485.66;5070808;28;20028;-76
2023/05/07 00:49:48;;;;;;;5.03;3.75;;;;;;;13.50;96.50;101484.84;5070877;28;20028;-76
2023/05/07 00:52:16;;;;;;;5.97;4.30;;;;;;;13.48;96.33;101471.81;5071466;28;20027;-76
2023/05/07 00:54:42;;;;;;;6.72;4.32;;;;;;;13.47;96.45;101474.47;5070399;28;20033;-76
2023/05/07 00:57:09;;;;;;;6.72;4.43;;;;;;;13.46;96.63;101476.25;5069529;28;20391;-76
2023/05/07 00:59:35;;;;;;;6.45;4.47;;;;;;;13.44;97.17;101480.66;5070634;28;20052;-76
2023/05/07 01:02:00;;;;;;;6.93;4.70;;;;;;;13.45;96.90;101478.88;5069887;28;20429;-75
2023/05/07 01:04:26;;;;;;;6.00;4.88;;;;;;;13.44;96.86;101480.66;5068965;28;20064;-76
2023/05/07 01:06:54;;;;;;;6.95;5.07;;;;;;;13.43;97.13;101476.31;5068581;28;20068;-76
2023/05/07 01:09:20;;;;;;;5.78;4.60;;;;;;;13.43;97.31;101478.94;5074932;28;20123;-76
2023/05/07 01:11:47;;;;;;;6.15;4.53;;;;;;;13.43;97.59;101480.66;5076079;28;20111;-76
2023/05/07 01:14:13;;;;;;;7.82;4.90;;;;;;;13.42;97.47;101477.22;5070569;28;20031;-76
2023/05/07 01:16:40;;;;;;;5.55;4.40;;;;;;;13.44;96.91;101471.94;5068923;28;20386;-76
2023/05/07 01:19:06;;;;;;;6.57;5.07;;;;;;;13.43;97.16;101473.69;5068438;28;20051;-76
2023/05/07 01:21:33;;;;;;;6.43;5.43;;;;;;;13.44;97.20;101475.41;5070497;28;20060;-76
2023/05/07 01:23:58;;;;;;;8.68;5.25;;;;;;;13.43;97.15;101467.59;5068392;28;20497;-76
2023/05/07 01:26:24;;;;;;;6.38;5.07;;;;;;;13.44;97.25;101472.81;5070072;28;20029;-75
2023/05/07 01:28:50;;;;;;;8.70;5.38;;;;;;;13.44;96.92;101482.38;5068788;28;20089;-76
2023/05/07 01:31:17;;;;;;;6.55;5.65;;;;;;;13.43;97.30;101473.69;5069785;28;20467;-76
2023/05/07 01:33:44;;;;;;;7.68;5.30;;;;;;;13.43;97.43;101473.69;5073243;28;20356;-76
2023/05/07 01:36:11;;;;;;;6.75;5.35;;;;;;;13.42;97.89;101479.81;5073403;28;20032;-75
2023/05/07 01:38:38;;;;;;;6.10;5.15;;;;;;;13.42;97.72;101472.00;5073104;28;20029;-76
2023/05/07 01:41:03;;;;;;;7.20;5.43;;;;;;;13.42;97.79;101466.75;5073611;28;20024;-76
2023/05/07 01:43:30;;;;;;;6.97;5.47;;;;;;;13.42;97.60;101466.75;5072693;28;20115;-76
2023/05/07 01:45:56;;;;;;;6.70;5.70;;;;;;;13.42;97.62;101455.44;5074914;28;20387;-76
2023/05/07 01:48:23;;;;;;;8.43;5.78;;;;;;;13.42;97.58;101458.91;5070917;28;20041;-75
2023/05/07 01:50:49;;;;;;;7.85;5.78;;;;;;;13.42;97.56;101455.44;5073820;28;20025;-76
2023/05/07 01:53:14;;;;;;;8.00;6.07;;;;;;;13.42;97.54;101451.06;5072478;28;20115;-76
2023/05/07 01:55:40;;;;;;;8.95;5.90;;;;;;;13.43;97.48;101455.41;5072817;28;20062;-76
2023/05/07 01:58:05;;;;;;;7.55;6.20;;;;;;;13.41;97.67;101458.97;5074185;28;20075;-76
2023/05/07 02:00:31;;;;;;;9.13;6.35;;;;;;;13.42;97.77;101460.66;5069040;28;20978;-75
2023/05/07 02:02:57;;;;;;;7.55;6.43;;;;;;;13.41;98.11;101454.59;5068454;28;20025;-76
2023/05/07 02:05:23;;;;;;;7.32;6.28;;;;;;;13.41;97.55;101451.97;5073404;28;20043;-76
2023/05/07 02:07:48;;;;;;;7.65;6.38;;;;;;;13.41;97.58;101451.97;5072792;28;20030;-75
2023/05/07 02:10:13;;;;;;;9.60;7.32;;;;;;;13.41;97.63;101451.97;5071268;28;20379;-76
2023/05/07 02:12:39;;;;;;;7.47;6.47;;;;;;;13.40;97.56;101452.00;5071295;28;20051;-75
2023/05/07 02:15:05;;;;;;;9.95;7.10;;;;;;;13.41;97.65;101453.75;5072621;28;20376;-76
2023/05/07 02:17:32;;;;;;;9.68;6.95;;;;;;;13.39;97.72;101445.91;5073019;28;20028;-76
2023/05/07 02:19:58;;;;;;;9.15;6.97;;;;;;;13.40;97.94;101447.66;5069992;28;20024;-76
2023/05/07 02:22:23;;;;;;;10.20;7.30;;;;;;;13.39;98.10;101456.34;5070742;28;20020;-76
2023/05/07 02:24:48;;;;;;;8.95;7.45;;;;;;;13.40;98.16;101447.66;5072157;28;20104;-76
2023/05/07 02:27:14;;;;;;;9.88;7.35;;;;;;;13.39;97.75;101445.06;5072918;28;20032;-77
2023/05/07 02:29:39;;;;;;;8.52;7.15;;;;;;;13.36;97.84;101441.63;5073008;28;20146;-76
2023/05/07 02:32:04;;;;;;;8.70;6.85;;;;;;;13.37;98.19;101442.47;5073964;28;20024;-76
2023/05/07 02:34:30;;;;;;;9.70;7.60;;;;;;;13.35;97.92;101449.50;5073241;28;20024;-76
2023/05/07 02:36:55;;;;;;;10.20;7.50;;;;;;;13.35;98.17;101450.38;5074127;28;20071;-76
2023/05/07 02:39:21;;;;;;;9.05;7.30;;;;;;;13.35;98.58;101439.91;5072723;28;20388;-76
2023/05/07 02:41:46;;;;;;;8.63;7.32;;;;;;;13.35;98.25;101447.75;5073576;28;20028;-75
2023/05/07 02:44:11;;;;;;;9.40;7.65;;;;;;;13.35;98.20;101452.09;5073050;28;20050;-76
2023/05/07 02:46:36;;;;;;;10.00;7.13;;;;;;;13.33;98.47;101454.78;5073215;28;20044;-75
2023/05/07 02:49:02;;;;;;;8.98;7.53;;;;;;;13.34;98.48;101453.00;5073573;28;20106;-75
2023/05/07 02:51:27;;;;;;;8.70;7.40;;;;;;;13.35;98.73;101454.72;5073647;28;20031;-76
2023/05/07 02:53:52;;;;;;;9.77;8.18;;;;;;;13.35;98.27;101459.94;5072312;28;20097;-75
2023/05/07 02:56:17;;;;;;;10.77;8.02;;;;;;;13.35;98.43;101459.94;5069702;28;20352;-76
2023/05/07 02:58:43;;;;;;;9.77;7.70;;;;;;;13.33;98.11;101448.66;5072231;28;20498;-76
2023/05/07 03:01:08;;;;;;;9.43;8.20;;;;;;;13.33;98.42;101446.06;5070217;28;20028;-76
2023/05/07 03:03:34;;;;;;;10.15;7.90;;;;;;;13.31;98.72;101447.88;5069632;28;20024;-76
2023/05/07 03:06:00;;;;;;;9.55;7.75;;;;;;;13.32;98.89;101454.81;5071584;28;20037;-76
2023/05/07 03:08:25;;;;;;;10.15;7.72;;;;;;;13.31;98.74;101456.56;5071264;28;20082;-76
2023/05/07 03:10:51;;;;;;;10.05;8.27;;;;;;;13.31;98.81;101455.72;5069566;28;20052;-76
2023/05/07 03:13:17;;;;;;;9.45;8.00;;;;;;;13.31;99.11;101453.94;5072658;28;20103;-76
2023/05/07 03:15:42;;;;;;;10.65;7.75;;;;;;;13.30;98.88;101454.84;5070570;28;20260;-76
2023/05/07 03:18:07;;;;;;;10.73;8.52;;;;;;;13.31;99.61;101458.34;5072313;28;20028;-76
2023/05/07 03:20:32;;;;;;;9.35;7.85;;;;;;;13.31;99.49;101453.09;5069307;28;20464;-76
2023/05/07 03:22:58;;;;;;;11.30;8.10;;;;;;;13.32;99.30;101453.06;5070115;28;20073;-76
2023/05/07 03:25:23;;;;;;;9.68;8.00;;;;;;;13.31;99.52;101453.09;5069364;28;20028;-76
2023/05/07 03:27:48;;;;;;;9.82;8.18;;;;;;;13.32;99.38;101458.28;5072273;28;20491;-75
2023/05/07 03:30:14;;;;;;;11.88;8.60;;;;;;;13.31;99.51;101447.88;5069759;28;20023;-76
2023/05/07 03:32:39;;;;;;;11.75;8.73;;;;;;;13.32;99.40;101449.59;5070974;28;20025;-76
2023/05/07 03:35:05;;;;;;;9.32;8.30;;;;;;;13.31;99.10;101450.50;5068728;28;20031;-76
2023/05/07 03:37:30;;;;;;;11.40;8.20;;;;;;;13.29;99.13;101449.69;5069539;28;20020;-76
2023/05/07 03:39:56;;;;;;;11.68;8.95;;;;;;;13.29;98.81;101439.22;5070238;28;20031;-76
2023/05/07 03:42:21;;;;;;;12.75;8.95;;;;;;;13.28;98.93;101440.13;5069882;28;20032;-76
2023/05/07 03:44:47;;;;;;;10.55;8.50;;;;;;;13.28;99.09;101437.50;5068705;28;20044;-76
2023/05/07 03:47:13;;;;;;;9.40;8.07;;;;;;;13.27;99.19;101443.63;5070652;28;20427;-76
2023/05/07 03:49:38;;;;;;;10.45;9.15;;;;;;;13.25;99.09;101440.19;5069274;28;20037;-76
2023/05/07 03:52:04;;;;;;;11.98;9.05;;;;;;;13.25;99.25;101437.59;5068141;28;20021;-76
2023/05/07 03:54:30;;;;;;;11.40;9.18;;;;;;;13.26;99.16;101441.91;5070487;28;20078;-76
2023/05/07 03:56:55;;;;;;;10.95;9.18;;;;;;;13.23;99.28;101436.78;5070941;28;20021;-76
2023/05/07 03:59:21;;;;;;;11.27;9.10;;;;;;;13.24;99.51;101441.09;5071880;28;20082;-76
2023/05/07 04:01:48;;;;;;;12.90;9.45;;;;;;;13.23;99.24;101447.22;5069199;28;20028;-76
2023/05/07 04:04:13;;;;;;;12.60;9.88;;;;;;;13.24;99.49;101446.31;5068592;28;20025;-76
2023/05/07 04:06:39;;;;;;;13.70;10.38;;;;;;;13.24;99.55;101451.53;5069331;28;20078;-76
2023/05/07 04:09:04;;;;;;;12.55;10.02;;;;;;;13.24;99.38;101457.63;5069533;28;20043;-76
2023/05/07 04:11:29;;;;;;;12.57;10.10;;;;;;;13.25;99.56;101461.94;5069635;28;20089;-76
2023/05/07 04:13:54;;;;;;;14.60;11.07;;;;;;;13.25;99.46;101459.34;5068039;28;20498;-76
2023/05/07 04:16:20;;;;;;;14.50;11.05;;;;;;;13.27;99.41;101464.53;5068099;28;20024;-76
2023/05/07 04:18:45;;;;;;;14.48;10.25;;;;;;;13.26;99.32;101462.81;5071208;28;20029;-76
2023/05/07 04:21:17;;;;;;;14.40;10.55;;;;;;;13.27;99.73;101461.91;5069690;28;20111;-76
2023/05/07 04:23:43;;;;;;;13.65;11.43;;;;;;;13.26;99.73;101466.28;5069796;28;20029;-76
2023/05/07 04:26:08;;;;;;;12.77;10.60;;;;;;;13.28;99.89;101471.47;5069315;28;20036;-76
2023/05/07 04:28:34;;;;;;;14.38;11.15;;;;;;;13.28;99.78;101471.47;5070002;28;20480;-76
2023/05/07 04:31:00;;;;;;;13.93;11.60;;;;;;;13.29;99.64;101473.19;5069556;28;20024;-76
2023/05/07 04:33:25;;;;;;;14.90;11.90;;;;;;;13.30;99.76;101472.28;5070155;28;20055;-76
2023/05/07 04:35:50;;;;;;;15.00;11.70;;;;;;;13.29;99.67;101471.41;5070349;28;20033;-76
2023/05/07 04:38:16;;;;;;;14.98;12.32;;;;;;;13.30;99.95;101473.13;5070153;28;20027;-76
2023/05/07 04:40:42;;;;;;;15.40;12.10;;;;;;;13.31;100.00;101474.00;5070364;28;20025;-76
2023/05/07 04:43:08;;;;;;;17.25;12.75;;;;;;;13.30;100.00;101470.53;5070143;28;20399;-76
2023/05/07 04:45:35;;;;;;;16.15;11.82;;;;;;;13.31;100.00;101468.78;5068337;28;20025;-76
2023/05/07 04:48:00;;;;;;;17.10;12.27;;;;;;;13.31;100.00;101474.00;5067200;28;20044;-76
2023/05/07 04:50:25;;;;;;;16.05;12.35;;;;;;;13.32;100.00;101470.50;5070428;28;20474;-76
2023/05/07 04:52:50;;;;;;;15.85;12.75;;;;;;;13.32;99.80;101467.88;5069639;28;20066;-76
2023/05/07 04:55:16;;;;;;;18.58;13.13;;;;;;;13.32;100.00;101470.50;5067898;28;20040;-76
2023/05/07 04:57:41;;;;;;;16.02;12.82;;;;;;;13.33;100.00;101477.41;5068525;28;20099;-76
2023/05/07 05:00:11;;;;;;;16.65;13.10;;;;;;;13.35;100.00;101475.63;5067563;28;20114;-76
2023/05/07 05:02:36;;;;;;;16.30;13.18;;;;;;;13.35;99.94;101479.09;5069355;28;20024;-76
2023/05/07 05:05:02;;;;;;;16.23;13.82;;;;;;;13.38;100.00;101480.78;5071715;28;20024;-76
2023/05/07 05:07:28;;;;;;;16.98;12.98;;;;;;;13.38;100.00;101480.78;5072036;28;20099;-76
2023/05/07 05:09:53;;;;;;;16.05;13.13;;;;;;;13.40;100.00;101481.63;5070629;28;20076;-76
2023/05/07 05:12:19;;;;;;;16.73;13.00;;;;;;;13.41;99.95;101483.34;5073178;28;20079;-75
2023/05/07 05:14:44;;;;;;;20.65;14.00;;;;;;;13.42;100.00;101478.94;5074367;28;20028;-76
2023/05/07 05:17:09;;;;;;;17.95;14.00;;;;;;;13.44;100.00;101488.50;5071550;28;20427;-76
2023/05/07 05:19:35;;;;;;;16.45;13.65;;;;;;;13.46;99.99;101489.31;5072294;28;20031;-76
2023/05/07 05:22:01;;;;;;;16.58;13.18;;;;;;;13.50;100.00;101484.84;5073588;28;20515;-76
2023/05/07 05:24:26;;;;;;;16.88;13.95;;;;;;;13.50;100.00;101495.28;5073110;28;20025;-76
2023/05/07 05:26:53;;;;;;;18.67;14.02;;;;;;;13.54;100.00;101496.06;5072533;28;20029;-76
2023/05/07 05:29:18;;;;;;;17.65;13.85;;;;;;;13.57;100.00;101498.59;5071584;28;20048;-76
2023/05/07 05:31:43;;;;;;;20.98;14.88;;;;;;;13.60;100.00;101501.97;5071886;28;20054;-76
2023/05/07 05:34:09;;;;;;;17.27;14.20;;;;;;;13.63;100.00;101501.06;5070650;28;20399;-76
2023/05/07 05:36:34;;;;;;;16.85;14.10;;;;;;;13.68;100.00;101506.97;5070697;28;20052;-76
2023/05/07 05:38:59;;;;;;;19.13;15.23;;;;;;;13.71;99.98;101509.53;5070219;28;20106;-76
2023/05/07 05:41:24;;;;;;;19.35;15.27;;;;;;;13.75;100.00;101512.94;5069222;28;20017;-76
2023/05/07 05:43:50;;;;;;;19.48;14.48;;;;;;;13.78;100.00;101516.31;5069731;28;20021;-76
2023/05/07 05:46:15;;;;;;;17.33;13.93;;;;;;;13.83;100.00;101512.72;5072927;28;20125;-76
2023/05/07 05:48:40;;;;;;;17.08;13.57;;;;;;;13.86;99.82;101512.59;5069528;28;20067;-76
2023/05/07 05:51:06;;;;;;;17.45;14.48;;;;;;;13.86;99.43;101512.59;5071637;28;20040;-76
2023/05/07 05:53:31;;;;;;;19.95;14.35;;;;;;;13.85;99.56;101511.75;5076871;28;20024;-76
2023/05/07 05:55:56;;;;;;;17.42;14.27;;;;;;;13.87;99.53;101516.94;5071747;28;20025;-76
2023/05/07 05:58:22;;;;;;;19.77;15.30;;;;;;;13.89;99.67;101512.50;5070170;28;20030;-76
2023/05/07 06:00:48;;;;;;;17.65;14.43;;;;;;;13.93;99.59;101514.16;5069192;28;20021;-76
2023/05/07 06:03:13;;;;;;;17.17;13.90;;;;;;;13.95;99.64;101517.56;5069031;28;20151;-76
2023/05/07 06:05:38;;;;;;;17.15;14.25;;;;;;;13.99;99.59;101511.38;5069139;28;20174;-76
2023/05/07 06:08:04;;;;;;;18.08;14.55;;;;;;;14.01;99.70;101512.16;5072695;28;20039;-76
2023/05/07 06:10:30;;;;;;;17.75;14.73;;;;;;;14.04;99.71;101509.44;5072455;28;20192;-76
2023/05/07 06:12:55;;;;;;;17.42;14.43;;;;;;;14.08;99.64;101513.69;5071606;28;20025;-76
2023/05/07 06:15:21;;;;;;;17.27;14.32;;;;;;;14.09;99.50;101512.78;5071950;28;20028;-76
2023/05/07 06:17:46;;;;;;;20.33;15.52;;;;;;;14.10;99.24;101511.88;5071954;28;20029;-76
2023/05/07 06:20:11;;;;;;;17.00;14.50;;;;;;;14.14;99.14;101507.41;5071586;28;20027;-76
2023/05/07 06:22:36;;;;;;;17.17;13.98;;;;;;;14.16;99.20;101513.47;5070620;28;20021;-76
2023/05/07 06:25:02;;;;;;;17.48;13.63;;;;;;;14.19;99.33;101513.38;5071502;28;20485;-76
2023/05/07 06:27:28;;;;;;;17.70;14.23;;;;;;;14.22;99.13;101515.03;5071975;28;20028;-76
2023/05/07 06:29:53;;;;;;;18.38;14.27;;;;;;;14.26;99.24;101516.66;5075269;28;20016;-76
2023/05/07 06:32:18;;;;;;;17.83;14.63;;;;;;;14.29;99.10;101513.97;5074028;28;20021;-76
2023/05/07 06:34:44;;;;;;;16.30;13.45;;;;;;;14.34;99.19;101514.69;5067843;28;20012;-76
2023/05/07 06:37:09;;;;;;;17.77;14.43;;;;;;;14.37;98.98;101519.78;5072122;28;20500;-76
2023/05/07 06:39:34;;;;;;;16.70;14.27;;;;;;;14.41;98.96;101510.94;5070766;28;20040;-76
2023/05/07 06:42:02;;;;;;;17.48;13.90;;;;;;;14.47;98.85;101519.53;5072290;28;20483;-76
2023/05/07 06:44:27;;;;;;;16.92;13.70;;;;;;;14.50;98.45;101519.44;5078142;28;20036;-76
2023/05/07 06:46:52;;;;;;;16.98;13.68;;;;;;;14.54;98.41;101527.13;5072008;28;20020;-75
2023/05/07 06:49:17;;;;;;;17.70;13.73;;;;;;;14.55;97.52;101526.25;5071632;28;20051;-76
2023/05/07 06:51:43;;;;;;;16.52;13.80;;;;;;;14.59;97.90;101528.75;5073692;28;20093;-76
2023/05/07 06:54:08;;;;;;;15.07;13.32;;;;;;;14.62;97.72;101529.50;5070959;28;20024;-76
2023/05/07 06:56:34;;;;;;;15.40;13.27;;;;;;;14.67;98.25;101531.97;5072260;28;20111;-76
2023/05/07 06:59:00;;;;;;;15.93;12.45;;;;;;;14.70;98.01;101532.75;5073682;28;20016;-76
2023/05/07 07:01:25;;;;;;;16.42;13.20;;;;;;;14.72;98.22;101533.56;5069037;28;20107;-77
2023/05/07 07:03:51;;;;;;;15.57;11.98;;;;;;;14.74;97.81;101537.91;5070296;28;20103;-76
2023/05/07 07:06:16;;;;;;;16.23;12.63;;;;;;;14.73;97.11;101531.81;5070507;28;20017;-76
2023/05/07 07:08:41;;;;;;;15.13;12.55;;;;;;;14.72;97.21;101535.34;5071782;28;20497;-76
2023/05/07 07:11:08;;;;;;;15.35;12.38;;;;;;;14.74;97.16;101538.78;5072913;28;20459;-76
2023/05/07 07:13:33;;;;;;;15.18;12.80;;;;;;;14.71;96.60;101542.34;5070873;28;20390;-77
2023/05/07 07:15:59;;;;;;;13.85;12.35;;;;;;;14.74;96.86;101543.16;5072307;28;20025;-76
2023/05/07 07:18:25;;;;;;;14.13;12.18;;;;;;;14.76;96.94;101542.22;5069330;28;20108;-76
2023/05/07 07:20:50;;;;;;;16.23;12.30;;;;;;;14.78;96.04;101543.00;5065774;28;20115;-77
2023/05/07 07:23:15;;;;;;;14.27;12.07;;;;;;;14.79;96.40;101546.47;5066289;28;20024;-77
2023/05/07 07:25:40;;;;;;;14.43;12.40;;;;;;;14.80;96.54;101549.03;5071330;28;20020;-76
2023/05/07 07:28:06;;;;;;;15.77;12.27;;;;;;;14.80;96.52;101549.03;5064120;28;20468;-76
2023/05/07 07:30:31;;;;;;;13.63;11.50;;;;;;;14.80;96.31;101546.41;5067640;28;20024;-76
2023/05/07 07:33:02;;;;;;;14.65;11.45;;;;;;;14.83;96.38;101553.34;5073185;28;20441;-76
2023/05/07 07:35:27;;;;;;;14.02;11.40;;;;;;;14.84;96.37;101542.81;5072584;28;20081;-77
2023/05/07 07:37:53;;;;;;;14.32;11.85;;;;;;;14.86;95.77;101553.22;5071113;28;20051;-77
2023/05/07 07:40:18;;;;;;;14.23;12.10;;;;;;;14.88;95.68;101548.78;5072827;28;20078;-77
2023/05/07 07:42:43;;;;;;;15.48;11.68;;;;;;;14.90;96.35;101548.75;5069939;28;20030;-76
2023/05/07 07:45:09;;;;;;;14.00;11.73;;;;;;;14.94;96.41;101553.84;5069568;28;20032;-76
2023/05/07 07:47:34;;;;;;;13.10;11.57;;;;;;;14.98;95.95;101551.97;5069817;28;20052;-76
2023/05/07 07:49:59;;;;;;;13.23;11.02;;;;;;;15.00;95.88;101550.16;5070570;28;20118;-76
2023/05/07 07:52:25;;;;;;;13.10;10.77;;;;;;;15.01;95.69;101550.13;5070800;28;20039;-76
2023/05/07 07:54:50;;;;;;;16.05;11.73;;;;;;;15.06;95.55;101554.34;5068658;28;20063;-76
2023/05/07 07:57:15;;;;;;;15.82;11.63;;;;;;;15.10;96.12;101555.97;5067151;28;20024;-76
2023/05/07 07:59:42;;;;;;;13.05;11.30;;;;;;;15.15;95.43;101554.03;5070644;28;20044;-77
2023/05/07 08:02:08;;;;;;;14.52;12.10;;;;;;;15.20;95.36;101554.72;5066275;28;20037;-76
2023/05/07 08:04:33;;;;;;;13.60;11.80;;;;;;;15.25;94.87;101555.44;5064236;28;20042;-76
2023/05/07 08:06:58;;;;;;;13.48;11.20;;;;;;;15.33;95.05;101556.03;5067976;28;20037;-77
2023/05/07 08:09:24;;;;;;;14.30;11.57;;;;;;;15.42;94.85;101561.88;5078538;28;20028;-76
2023/05/07 08:11:49;;;;;;;13.45;11.48;;;;;;;15.52;95.10;101565.03;5070414;28;20488;-76
2023/05/07 08:14:15;;;;;;;14.88;12.60;;;;;;;15.63;94.34;101565.50;5075436;28;20028;-76
2023/05/07 08:16:41;;;;;;;14.18;12.02;;;;;;;15.73;94.29;101558.16;5067438;28;20039;-76
2023/05/07 08:19:06;;;;;;;13.57;11.35;;;;;;;15.81;93.25;101560.50;5078658;28;20032;-76
2023/05/07 08:21:32;;;;;;;14.40;11.65;;;;;;;15.86;93.05;101558.59;5071054;28;20025;-76
2023/05/07 08:23:57;;;;;;;12.73;11.02;;;;;;;15.96;93.23;101559.13;5073794;28;20040;-76
2023/05/07 08:26:22;;;;;;;14.45;10.85;;;;;;;16.02;92.84;101566.78;5069329;28;20036;-76
2023/05/07 08:28:48;;;;;;;15.27;11.32;;;;;;;16.07;92.68;101570.06;5068211;28;20020;-76
2023/05/07 08:31:13;;;;;;;15.23;11.23;;;;;;;16.13;92.77;101574.25;5066973;28;20042;-76
2023/05/07 08:33:38;;;;;;;36.40;13.85;;;;;;;16.17;91.84;101571.47;5068691;28;20421;-77
2023/05/07 08:36:04;;;;;;;15.13;11.15;;;;;;;16.21;91.52;101578.31;5069460;28;20060;-76
2023/05/07 08:38:30;;;;;;;13.90;11.07;;;;;;;16.25;91.08;101573.78;5065794;28;20024;-76
2023/05/07 08:40:55;;;;;;;14.50;10.75;;;;;;;16.29;91.99;101580.66;5060792;28;20146;-76
2023/05/07 08:43:22;;;;;;;15.07;10.98;;;;;;;16.33;91.06;101573.50;5067886;28;20035;-76
2023/05/07 08:45:53;;;;;;;15.77;11.55;;;;;;;16.36;91.01;101576.84;5065922;28;20028;-76
2023/05/07 08:48:21;;;;;;;15.75;11.00;;;;;;;16.37;89.58;101569.84;5063066;28;20123;-76
2023/05/07 08:50:48;;;;;;;15.05;11.38;;;;;;;16.39;90.29;101571.50;5066219;28;20062;-76
2023/05/07 08:53:16;;;;;;;14.68;11.02;;;;;;;16.44;90.88;101575.72;5059166;28;20024;-76
2023/05/07 08:55:41;;;;;;;15.13;10.45;;;;;;;16.48;90.83;101572.91;5062355;28;20028;-76
2023/05/07 08:58:06;;;;;;;12.77;10.93;;;;;;;16.55;90.51;101576.16;5063244;28;20035;-77
2023/05/07 09:00:32;;;;;;;11.90;10.70;;;;;;;16.64;91.99;101575.81;5066240;28;20020;-76
2023/05/07 09:02:57;;;;;;;13.00;10.57;;;;;;;16.74;91.07;101576.25;5066844;28;20554;-76
2023/05/07 09:05:22;;;;;;;12.95;11.05;;;;;;;16.81;90.35;101577.75;5064762;28;20094;-76
2023/05/07 09:07:48;;;;;;;10.57;9.27;;;;;;;16.86;88.76;101579.34;5066179;28;20028;-77
2023/05/07 09:10:13;;;;;;;12.38;9.43;;;;;;;16.91;88.18;101585.28;5069440;28;20029;-76
2023/05/07 09:12:39;;;;;;;11.32;9.50;;;;;;;16.95;87.48;101581.59;5075710;28;20031;-76
2023/05/07 09:15:06;;;;;;;11.07;8.75;;;;;;;17.02;87.17;101584.84;5071819;28;20028;-76
2023/05/07 09:17:31;;;;;;;11.57;9.35;;;;;;;17.08;88.55;101580.19;5073438;28;20278;-77
2023/05/07 09:20:01;;;;;;;12.45;9.40;;;;;;;17.17;88.01;101578.09;5072864;28;20031;-77
2023/05/07 09:22:26;;;;;;;11.07;8.82;;;;;;;17.21;85.59;101579.69;5073315;28;20044;-76
2023/05/07 09:24:51;;;;;;;10.20;8.48;;;;;;;17.26;85.67;101577.69;5072811;28;20032;-76
2023/05/07 09:27:17;;;;;;;9.80;8.50;;;;;;;17.29;83.89;101583.69;5065841;28;20035;-77
2023/05/07 09:29:43;;;;;;;11.68;8.40;;;;;;;17.37;86.19;101569.34;5068720;28;20032;-76
2023/05/07 09:32:09;;;;;;;12.25;9.60;;;;;;;17.45;86.07;101577.78;5065893;28;20032;-77
2023/05/07 09:34:35;;;;;;;11.02;9.02;;;;;;;17.51;84.95;101576.66;5072412;28;20070;-76
2023/05/07 09:37:02;;;;;;;10.50;9.00;;;;;;;17.53;84.55;101569.56;5073037;28;20058;-77
2023/05/07 09:39:38;;;;;;;10.52;8.90;;;;;;;17.56;86.27;101570.28;5078477;28;20027;-77
2023/05/07 09:42:04;;;;;;;9.95;8.75;;;;;;;17.60;84.72;101576.25;5071564;28;20471;-76
2023/05/07 09:44:31;;;;;;;11.85;9.13;;;;;;;17.63;85.16;101573.50;5069134;28;20028;-76
2023/05/07 09:46:59;;;;;;;11.70;9.20;;;;;;;17.66;85.65;101576.00;5070706;28;20056;-76
2023/05/07 09:49:32;;;;;;;11.70;9.20;;;;;;;17.70;85.19;101576.69;5067605;28;20032;-77
2023/05/07 09:52:00;;;;;;;11.55;9.20;;;;;;;17.71;83.72;101571.38;5072176;28;20093;-77
2023/05/07 09:54:25;;;;;;;11.60;9.57;;;;;;;17.74;84.38;101579.16;5076323;28;20073;-77
2023/05/07 09:56:52;;;;;;;11.30;9.00;;;;;;;17.80;86.00;101566.63;5074453;28;20036;-77
2023/05/07 09:59:20;;;;;;;10.75;8.52;;;;;;;17.89;86.60;101571.50;5071206;28;20032;-76
2023/05/07 10:01:45;;;;;;;11.20;9.18;;;;;;;17.92;84.41;101579.25;5070831;28;20378;-77
2023/05/07 10:04:11;;;;;;;10.95;8.80;;;;;;;17.93;83.13;101573.06;5066667;28;20036;-77
2023/05/07 10:06:38;;;;;;;10.77;9.25;;;;;;;17.95;84.11;101573.00;5060626;28;20624;-76
2023/05/07 10:09:07;;;;;;;9.77;8.68;;;;;;;18.01;84.69;101576.22;5070083;28;20990;-76
2023/05/07 10:11:37;;;;;;;10.05;8.38;;;;;;;18.05;83.20;101572.53;5070712;28;20054;-76
2023/05/07 10:14:05;;;;;;;9.95;8.13;;;;;;;18.08;82.30;101575.97;5070579;28;20041;-76
2023/05/07 10:16:32;;;;;;;13.25;9.52;;;;;;;18.13;82.12;101579.22;5069877;28;20036;-76
2023/05/07 10:18:58;;;;;;;12.90;10.30;;;;;;;18.18;84.16;101574.59;5069053;28;20384;-76
2023/05/07 10:21:27;;;;;;;11.85;9.52;;;;;;;18.25;83.78;101578.66;5073289;28;21384;-77
2023/05/07 10:24:03;;;;;;;11.32;9.13;;;;;;;18.32;82.11;101579.25;5068243;28;20036;-77
2023/05/07 10:26:31;;;;;;;9.30;8.27;;;;;;;18.39;83.15;101572.72;5067491;28;20044;-76
2023/05/07 10:29:02;;;;;;;10.45;7.97;;;;;;;18.46;81.95;101575.94;5075245;28;20032;-76
2023/05/07 10:31:46;;;;;;;11.80;9.23;;;;;;;18.55;82.43;101575.50;5072785;28;20032;-76
2023/05/07 10:34:18;;;;;;;12.15;9.35;;;;;;;18.63;82.66;101578.63;5078092;28;20467;-77
2023/05/07 10:36:44;;;;;;;11.55;9.25;;;;;;;18.69;81.57;101577.50;5075210;28;20077;-76
2023/05/07 10:39:10;;;;;;;10.23;9.13;;;;;;;18.76;82.61;101586.78;5070683;28;20067;-75
2023/05/07 10:41:36;;;;;;;10.07;8.20;;;;;;;18.78;79.86;101589.38;5072688;28;20090;-77
2023/05/07 10:44:02;;;;;;;8.80;7.85;;;;;;;18.79;79.30;101588.41;5071577;28;20092;-77
2023/05/07 10:46:27;;;;;;;9.30;7.90;;;;;;;18.84;80.03;101590.84;5071283;28;20043;-77
2023/05/07 10:49:08;;;;;;;9.60;7.82;;;;;;;18.90;79.05;101590.53;5078062;28;20407;-76
2023/05/07 10:51:34;;;;;;;8.20;6.90;;;;;;;18.89;76.08;101584.41;5066249;28;20071;-76
2023/05/07 10:54:11;;;;;;;8.45;6.78;;;;;;;18.92;77.69;101591.31;5076236;28;20030;-76
2023/05/07 10:56:38;;;;;;;7.78;6.60;;;;;;;18.98;78.16;101587.56;5066784;28;20440;-76
2023/05/07 10:59:27;;;;;;;9.80;7.43;;;;;;;19.06;78.92;101593.31;5066229;28;20060;-76
2023/05/07 11:01:57;;;;;;;7.63;6.57;;;;;;;19.11;76.92;101588.69;5069970;28;20032;-76
2023/05/07 11:04:27;;;;;;;8.97;7.20;;;;;;;19.14;76.14;101583.22;5067768;28;20032;-76
2023/05/07 11:07:12;;;;;;;8.80;6.72;;;;;;;19.20;77.74;101582.09;5069807;28;20020;-76
2023/05/07 11:09:53;;;;;;;8.30;6.25;;;;;;;19.26;77.48;101577.34;5071756;28;20040;-76
2023/05/07 11:12:36;;;;;;;6.50;5.70;;;;;;;19.34;76.28;101584.00;5070203;28;20047;-76